sensor_id;sensor_type;location;lat;lon;timestamp;temperature;humidity
5274;DHT22;56254;50.956;7.010;2022-08-19T00:00:24;22.80;90.00
5274;DHT22;56254;50.956;7.010;2022-08-19T00:02:51;22.70;90.00
5274;DHT22;56254;50.956;7.010;2022-08-19T00:05:19;22.70;90.30
5274;DHT22;56254;50.956;7.010;2022-08-19T00:07:45;22.70;90.70
5274;DHT22;56254;50.956;7.010;2022-08-19T00:10:13;22.70;90.80
5274;DHT22;56254;50.956;7.010;2022-08-19T00:12:39;22.60;90.50
5274;DHT22;56254;50.956;7.010;2022-08-19T00:15:09;22.60;90.80
5274;DHT22;56254;50.956;7.010;2022-08-19T00:17:44;22.50;91.00
5274;DHT22;56254;50.956;7.010;2022-08-19T00:20:13;22.60;91.20
5274;DHT22;56254;50.956;7.010;2022-08-19T00:22:42;22.50;91.60
5274;DHT22;56254;50.956;7.010;2022-08-19T00:25:08;22.40;92.00
5274;DHT22;56254;50.956;7.010;2022-08-19T00:27:35;22.40;91.80
5274;DHT22;56254;50.956;7.010;2022-08-19T00:30:02;22.40;91.80
5274;DHT22;56254;50.956;7.010;2022-08-19T00:32:29;22.50;91.50
5274;DHT22;56254;50.956;7.010;2022-08-19T00:34:55;22.40;91.90
5274;DHT22;56254;50.956;7.010;2022-08-19T00:37:23;22.40;92.00
5274;DHT22;56254;50.956;7.010;2022-08-19T00:39:50;22.50;92.10
5274;DHT22;56254;50.956;7.010;2022-08-19T00:42:17;22.40;92.40
5274;DHT22;56254;50.956;7.010;2022-08-19T00:44:46;22.30;92.50
5274;DHT22;56254;50.956;7.010;2022-08-19T00:47:12;22.30;92.30
5274;DHT22;56254;50.956;7.010;2022-08-19T00:49:43;22.30;92.50
5274;DHT22;56254;50.956;7.010;2022-08-19T00:52:21;22.20;93.10
5274;DHT22;56254;50.956;7.010;2022-08-19T00:54:48;22.10;93.30
5274;DHT22;56254;50.956;7.010;2022-08-19T00:57:16;22.00;93.80
5274;DHT22;56254;50.956;7.010;2022-08-19T00:59:45;21.90;94.10
5274;DHT22;56254;50.956;7.010;2022-08-19T01:02:11;21.90;94.40
5274;DHT22;56254;50.956;7.010;2022-08-19T01:04:38;21.90;94.10
5274;DHT22;56254;50.956;7.010;2022-08-19T01:07:04;21.90;94.20
5274;DHT22;56254;50.956;7.010;2022-08-19T01:09:31;21.90;94.40
5274;DHT22;56254;50.956;7.010;2022-08-19T01:11:57;21.80;94.70
5274;DHT22;56254;50.956;7.010;2022-08-19T01:14:23;21.70;95.40
5274;DHT22;56254;50.956;7.010;2022-08-19T01:16:50;21.80;94.80
5274;DHT22;56254;50.956;7.010;2022-08-19T01:19:41;21.90;94.60
5274;DHT22;56254;50.956;7.010;2022-08-19T01:24:49;21.80;95.10
5274;DHT22;56254;50.956;7.010;2022-08-19T01:27:16;21.80;95.10
5274;DHT22;56254;50.956;7.010;2022-08-19T01:29:42;21.70;95.50
5274;DHT22;56254;50.956;7.010;2022-08-19T01:32:10;21.60;95.70
5274;DHT22;56254;50.956;7.010;2022-08-19T01:34:37;21.60;96.00
5274;DHT22;56254;50.956;7.010;2022-08-19T01:37:12;21.60;96.00
5274;DHT22;56254;50.956;7.010;2022-08-19T01:39:39;21.60;96.60
5274;DHT22;56254;50.956;7.010;2022-08-19T01:42:08;21.50;96.70
5274;DHT22;56254;50.956;7.010;2022-08-19T01:44:39;21.30;96.90
5274;DHT22;56254;50.956;7.010;2022-08-19T01:47:07;21.40;97.70
5274;DHT22;56254;50.956;7.010;2022-08-19T01:49:35;21.20;97.60
5274;DHT22;56254;50.956;7.010;2022-08-19T01:52:03;21.30;98.10
5274;DHT22;56254;50.956;7.010;2022-08-19T01:54:29;21.20;98.60
5274;DHT22;56254;50.956;7.010;2022-08-19T01:57:05;21.20;98.80
5274;DHT22;56254;50.956;7.010;2022-08-19T01:59:33;21.20;98.90
5274;DHT22;56254;50.956;7.010;2022-08-19T02:02:01;21.20;99.20
5274;DHT22;56254;50.956;7.010;2022-08-19T02:04:27;21.10;99.60
5274;DHT22;56254;50.956;7.010;2022-08-19T02:06:53;21.10;99.40
5274;DHT22;56254;50.956;7.010;2022-08-19T02:09:18;21.10;99.70
5274;DHT22;56254;50.956;7.010;2022-08-19T02:11:44;20.90;99.90
5274;DHT22;56254;50.956;7.010;2022-08-19T02:14:10;20.90;99.90
5274;DHT22;56254;50.956;7.010;2022-08-19T02:16:36;21.00;99.80
5274;DHT22;56254;50.956;7.010;2022-08-19T02:19:03;21.00;99.60
5274;DHT22;56254;50.956;7.010;2022-08-19T02:21:30;21.10;99.70
5274;DHT22;56254;50.956;7.010;2022-08-19T02:23:56;21.10;99.70
5274;DHT22;56254;50.956;7.010;2022-08-19T02:26:23;21.00;99.80
5274;DHT22;56254;50.956;7.010;2022-08-19T02:28:52;21.00;99.90
5274;DHT22;56254;50.956;7.010;2022-08-19T02:31:21;21.00;99.50
5274;DHT22;56254;50.956;7.010;2022-08-19T02:33:48;21.10;99.70
5274;DHT22;56254;50.956;7.010;2022-08-19T02:36:15;21.00;99.60
5274;DHT22;56254;50.956;7.010;2022-08-19T02:38:42;21.10;99.50
5274;DHT22;56254;50.956;7.010;2022-08-19T02:41:13;21.10;99.30
5274;DHT22;56254;50.956;7.010;2022-08-19T02:43:39;21.10;99.50
5274;DHT22;56254;50.956;7.010;2022-08-19T02:46:17;21.00;99.00
5274;DHT22;56254;50.956;7.010;2022-08-19T02:48:49;21.10;99.00
5274;DHT22;56254;50.956;7.010;2022-08-19T02:51:21;21.00;99.20
5274;DHT22;56254;50.956;7.010;2022-08-19T02:53:48;20.90;99.50
5274;DHT22;56254;50.956;7.010;2022-08-19T02:56:14;21.00;99.40
5274;DHT22;56254;50.956;7.010;2022-08-19T02:58:40;21.00;99.40
5274;DHT22;56254;50.956;7.010;2022-08-19T03:01:06;21.00;99.10
5274;DHT22;56254;50.956;7.010;2022-08-19T03:03:32;21.00;99.00
5274;DHT22;56254;50.956;7.010;2022-08-19T03:06:07;21.00;98.20
5274;DHT22;56254;50.956;7.010;2022-08-19T03:08:36;21.10;98.20
5274;DHT22;56254;50.956;7.010;2022-08-19T03:11:05;21.00;98.50
5274;DHT22;56254;50.956;7.010;2022-08-19T03:13:31;21.10;98.70
5274;DHT22;56254;50.956;7.010;2022-08-19T03:15:58;21.00;98.70
5274;DHT22;56254;50.956;7.010;2022-08-19T03:18:24;21.10;99.30
5274;DHT22;56254;50.956;7.010;2022-08-19T03:20:52;21.10;98.60
5274;DHT22;56254;50.956;7.010;2022-08-19T03:23:23;21.00;98.80
5274;DHT22;56254;50.956;7.010;2022-08-19T03:25:51;20.90;99.00
5274;DHT22;56254;50.956;7.010;2022-08-19T03:28:17;21.00;99.20
5274;DHT22;56254;50.956;7.010;2022-08-19T03:31:04;20.90;99.40
5274;DHT22;56254;50.956;7.010;2022-08-19T03:33:33;20.90;99.80
5274;DHT22;56254;50.956;7.010;2022-08-19T03:38:31;20.80;99.90
5274;DHT22;56254;50.956;7.010;2022-08-19T03:40:57;20.70;99.90
5274;DHT22;56254;50.956;7.010;2022-08-19T03:43:23;20.80;99.90
5274;DHT22;56254;50.956;7.010;2022-08-19T03:46:07;20.70;99.90
5274;DHT22;56254;50.956;7.010;2022-08-19T03:48:34;20.60;99.90
5274;DHT22;56254;50.956;7.010;2022-08-19T03:51:00;20.50;99.90
5274;DHT22;56254;50.956;7.010;2022-08-19T03:53:27;20.50;99.90
5274;DHT22;56254;50.956;7.010;2022-08-19T03:55:54;20.50;99.90
5274;DHT22;56254;50.956;7.010;2022-08-19T03:58:21;20.60;99.90
5274;DHT22;56254;50.956;7.010;2022-08-19T04:00:47;20.60;99.90
5274;DHT22;56254;50.956;7.010;2022-08-19T04:03:13;20.60;99.90
5274;DHT22;56254;50.956;7.010;2022-08-19T04:05:39;20.50;99.90
5274;DHT22;56254;50.956;7.010;2022-08-19T04:08:05;20.50;99.90
5274;DHT22;56254;50.956;7.010;2022-08-19T04:10:35;20.50;99.90
5274;DHT22;56254;50.956;7.010;2022-08-19T04:13:02;20.50;99.90
5274;DHT22;56254;50.956;7.010;2022-08-19T04:15:28;20.50;99.90
5274;DHT22;56254;50.956;7.010;2022-08-19T04:17:58;20.50;99.90
5274;DHT22;56254;50.956;7.010;2022-08-19T04:20:24;20.40;99.90
5274;DHT22;56254;50.956;7.010;2022-08-19T04:22:50;20.40;99.90
5274;DHT22;56254;50.956;7.010;2022-08-19T04:25:15;20.30;99.90
5274;DHT22;56254;50.956;7.010;2022-08-19T04:27:41;20.40;99.90
5274;DHT22;56254;50.956;7.010;2022-08-19T04:30:18;20.30;99.90
5274;DHT22;56254;50.956;7.010;2022-08-19T04:32:44;20.30;99.90
5274;DHT22;56254;50.956;7.010;2022-08-19T04:35:10;20.30;99.90
5274;DHT22;56254;50.956;7.010;2022-08-19T04:37:36;20.20;99.90
5274;DHT22;56254;50.956;7.010;2022-08-19T04:40:03;20.20;99.90
5274;DHT22;56254;50.956;7.010;2022-08-19T04:42:47;20.20;99.90
5274;DHT22;56254;50.956;7.010;2022-08-19T04:45:14;20.20;99.90
5274;DHT22;56254;50.956;7.010;2022-08-19T04:47:42;20.10;99.90
5274;DHT22;56254;50.956;7.010;2022-08-19T04:50:09;20.20;99.90
5274;DHT22;56254;50.956;7.010;2022-08-19T04:52:37;20.20;99.90
5274;DHT22;56254;50.956;7.010;2022-08-19T04:55:09;20.30;99.90
5274;DHT22;56254;50.956;7.010;2022-08-19T04:57:37;20.40;99.90
5274;DHT22;56254;50.956;7.010;2022-08-19T05:00:07;20.30;99.90
5274;DHT22;56254;50.956;7.010;2022-08-19T05:02:33;20.30;99.90
5274;DHT22;56254;50.956;7.010;2022-08-19T05:04:59;20.40;99.90
5274;DHT22;56254;50.956;7.010;2022-08-19T05:07:26;20.40;99.90
5274;DHT22;56254;50.956;7.010;2022-08-19T05:09:52;20.70;99.90
5274;DHT22;56254;50.956;7.010;2022-08-19T05:12:18;20.70;99.90
5274;DHT22;56254;50.956;7.010;2022-08-19T05:14:45;20.80;99.90
5274;DHT22;56254;50.956;7.010;2022-08-19T05:17:12;20.80;99.90
5274;DHT22;56254;50.956;7.010;2022-08-19T05:19:38;20.90;99.90
5274;DHT22;56254;50.956;7.010;2022-08-19T05:22:22;20.90;99.60
5274;DHT22;56254;50.956;7.010;2022-08-19T05:25:09;20.90;99.90
5274;DHT22;56254;50.956;7.010;2022-08-19T05:27:35;21.00;99.90
5274;DHT22;56254;50.956;7.010;2022-08-19T05:30:02;21.30;99.90
5274;DHT22;56254;50.956;7.010;2022-08-19T05:32:28;21.40;99.90
5274;DHT22;56254;50.956;7.010;2022-08-19T05:34:54;21.40;99.90
5274;DHT22;56254;50.956;7.010;2022-08-19T05:37:20;21.60;99.90
5274;DHT22;56254;50.956;7.010;2022-08-19T05:39:47;21.60;99.90
5274;DHT22;56254;50.956;7.010;2022-08-19T05:42:14;21.60;99.90
5274;DHT22;56254;50.956;7.010;2022-08-19T05:44:42;21.50;99.90
5274;DHT22;56254;50.956;7.010;2022-08-19T05:47:11;21.70;99.90
5274;DHT22;56254;50.956;7.010;2022-08-19T05:49:38;21.70;99.90
5274;DHT22;56254;50.956;7.010;2022-08-19T05:52:06;21.70;99.90
5274;DHT22;56254;50.956;7.010;2022-08-19T05:54:33;21.70;99.90
5274;DHT22;56254;50.956;7.010;2022-08-19T05:57:00;21.80;99.90
5274;DHT22;56254;50.956;7.010;2022-08-19T05:59:33;21.80;99.90
5274;DHT22;56254;50.956;7.010;2022-08-19T06:02:00;21.80;99.90
5274;DHT22;56254;50.956;7.010;2022-08-19T06:04:26;21.70;99.90
5274;DHT22;56254;50.956;7.010;2022-08-19T06:06:53;21.80;99.90
5274;DHT22;56254;50.956;7.010;2022-08-19T06:09:20;21.80;99.90
5274;DHT22;56254;50.956;7.010;2022-08-19T06:14:20;21.90;99.90
5274;DHT22;56254;50.956;7.010;2022-08-19T06:16:47;22.00;99.90
5274;DHT22;56254;50.956;7.010;2022-08-19T06:19:18;22.20;99.90
5274;DHT22;56254;50.956;7.010;2022-08-19T06:21:46;22.40;99.90
5274;DHT22;56254;50.956;7.010;2022-08-19T06:24:17;22.40;99.90
5274;DHT22;56254;50.956;7.010;2022-08-19T06:26:45;22.50;99.90
5274;DHT22;56254;50.956;7.010;2022-08-19T06:29:13;22.70;99.90
5274;DHT22;56254;50.956;7.010;2022-08-19T06:31:44;22.70;99.50
5274;DHT22;56254;50.956;7.010;2022-08-19T06:34:10;22.90;98.40
5274;DHT22;56254;50.956;7.010;2022-08-19T06:36:40;23.10;98.10
5274;DHT22;56254;50.956;7.010;2022-08-19T06:39:19;23.30;96.70
5274;DHT22;56254;50.956;7.010;2022-08-19T06:41:49;23.80;92.60
5274;DHT22;56254;50.956;7.010;2022-08-19T06:44:15;24.60;89.10
5274;DHT22;56254;50.956;7.010;2022-08-19T06:46:42;24.90;87.20
5274;DHT22;56254;50.956;7.010;2022-08-19T06:49:07;25.50;85.40
5274;DHT22;56254;50.956;7.010;2022-08-19T06:51:43;25.70;84.30
5274;DHT22;56254;50.956;7.010;2022-08-19T06:54:10;25.90;83.60
5274;DHT22;56254;50.956;7.010;2022-08-19T06:56:36;26.10;82.80
5274;DHT22;56254;50.956;7.010;2022-08-19T06:59:05;26.00;82.70
5274;DHT22;56254;50.956;7.010;2022-08-19T07:01:40;25.60;83.90
5274;DHT22;56254;50.956;7.010;2022-08-19T07:04:07;25.30;84.90
5274;DHT22;56254;50.956;7.010;2022-08-19T07:06:35;25.20;85.30
5274;DHT22;56254;50.956;7.010;2022-08-19T07:09:08;25.20;85.60
5274;DHT22;56254;50.956;7.010;2022-08-19T07:11:34;25.10;86.00
5274;DHT22;56254;50.956;7.010;2022-08-19T07:14:01;25.30;85.50
5274;DHT22;56254;50.956;7.010;2022-08-19T07:16:27;25.90;84.20
5274;DHT22;56254;50.956;7.010;2022-08-19T07:18:54;26.70;80.50
5274;DHT22;56254;50.956;7.010;2022-08-19T07:21:24;27.20;78.50
5274;DHT22;56254;50.956;7.010;2022-08-19T07:23:51;27.60;77.50
5274;DHT22;56254;50.956;7.010;2022-08-19T07:26:27;27.50;77.70
5274;DHT22;56254;50.956;7.010;2022-08-19T07:28:53;27.60;77.40
5274;DHT22;56254;50.956;7.010;2022-08-19T07:31:22;27.90;76.10
5274;DHT22;56254;50.956;7.010;2022-08-19T07:33:49;28.10;74.70
5274;DHT22;56254;50.956;7.010;2022-08-19T07:36:17;28.20;75.30
5274;DHT22;56254;50.956;7.010;2022-08-19T07:38:46;28.40;74.60
5274;DHT22;56254;50.956;7.010;2022-08-19T07:41:16;28.60;73.40
5274;DHT22;56254;50.956;7.010;2022-08-19T07:43:42;28.70;73.70
5274;DHT22;56254;50.956;7.010;2022-08-19T07:46:11;28.70;73.40
5274;DHT22;56254;50.956;7.010;2022-08-19T07:48:41;28.50;73.50
5274;DHT22;56254;50.956;7.010;2022-08-19T07:51:08;28.20;74.00
5274;DHT22;56254;50.956;7.010;2022-08-19T07:53:36;28.30;73.80
5274;DHT22;56254;50.956;7.010;2022-08-19T07:56:03;27.80;74.40
5274;DHT22;56254;50.956;7.010;2022-08-19T07:58:36;27.30;75.90
5274;DHT22;56254;50.956;7.010;2022-08-19T08:01:06;27.00;76.90
5274;DHT22;56254;50.956;7.010;2022-08-19T08:03:33;26.90;76.70
5274;DHT22;56254;50.956;7.010;2022-08-19T08:06:18;26.60;77.00
5274;DHT22;56254;50.956;7.010;2022-08-19T08:09:04;26.20;79.90
5274;DHT22;56254;50.956;7.010;2022-08-19T08:11:52;26.00;80.40
5274;DHT22;56254;50.956;7.010;2022-08-19T08:14:22;25.90;80.60
5274;DHT22;56254;50.956;7.010;2022-08-19T08:16:49;25.50;81.40
5274;DHT22;56254;50.956;7.010;2022-08-19T08:19:18;25.50;82.00
5274;DHT22;56254;50.956;7.010;2022-08-19T08:21:44;25.40;82.40
5274;DHT22;56254;50.956;7.010;2022-08-19T08:24:12;25.30;82.20
5274;DHT22;56254;50.956;7.010;2022-08-19T08:26:38;25.20;83.30
5274;DHT22;56254;50.956;7.010;2022-08-19T08:29:04;25.00;83.80
5274;DHT22;56254;50.956;7.010;2022-08-19T08:31:30;25.10;84.20
5274;DHT22;56254;50.956;7.010;2022-08-19T08:33:55;25.10;84.00
5274;DHT22;56254;50.956;7.010;2022-08-19T08:36:21;25.20;84.00
5274;DHT22;56254;50.956;7.010;2022-08-19T08:38:47;25.20;84.40
5274;DHT22;56254;50.956;7.010;2022-08-19T08:44:03;25.60;83.30
5274;DHT22;56254;50.956;7.010;2022-08-19T08:46:42;25.80;82.90
5274;DHT22;56254;50.956;7.010;2022-08-19T08:52:05;25.90;81.60
5274;DHT22;56254;50.956;7.010;2022-08-19T08:54:43;26.10;81.30
5274;DHT22;56254;50.956;7.010;2022-08-19T08:58:07;26.20;81.10
5274;DHT22;56254;50.956;7.010;2022-08-19T09:00:46;26.20;81.90
5274;DHT22;56254;50.956;7.010;2022-08-19T09:03:25;26.40;79.80
5274;DHT22;56254;50.956;7.010;2022-08-19T09:06:31;26.40;79.30
5274;DHT22;56254;50.956;7.010;2022-08-19T09:09:04;26.60;78.90
5274;DHT22;56254;50.956;7.010;2022-08-19T09:14:32;26.60;78.60
5274;DHT22;56254;50.956;7.010;2022-08-19T09:16:58;26.50;77.70
5274;DHT22;56254;50.956;7.010;2022-08-19T09:19:25;26.60;78.40
5274;DHT22;56254;50.956;7.010;2022-08-19T09:21:51;27.10;77.40
5274;DHT22;56254;50.956;7.010;2022-08-19T09:24:17;27.00;75.50
5274;DHT22;56254;50.956;7.010;2022-08-19T09:26:42;27.40;74.70
5274;DHT22;56254;50.956;7.010;2022-08-19T09:29:12;27.70;72.80
5274;DHT22;56254;50.956;7.010;2022-08-19T09:31:38;27.70;72.50
5274;DHT22;56254;50.956;7.010;2022-08-19T09:34:04;27.90;71.90
5274;DHT22;56254;50.956;7.010;2022-08-19T09:36:32;28.10;70.60
5274;DHT22;56254;50.956;7.010;2022-08-19T09:39:04;27.70;70.90
5274;DHT22;56254;50.956;7.010;2022-08-19T09:41:31;27.80;70.20
5274;DHT22;56254;50.956;7.010;2022-08-19T09:43:58;27.80;69.80
5274;DHT22;56254;50.956;7.010;2022-08-19T09:46:27;28.00;69.10
5274;DHT22;56254;50.956;7.010;2022-08-19T09:48:54;27.90;70.10
5274;DHT22;56254;50.956;7.010;2022-08-19T09:51:23;27.70;70.70
5274;DHT22;56254;50.956;7.010;2022-08-19T09:53:50;27.80;70.20
5274;DHT22;56254;50.956;7.010;2022-08-19T09:56:18;27.80;70.10
5274;DHT22;56254;50.956;7.010;2022-08-19T09:58:45;27.50;68.50
5274;DHT22;56254;50.956;7.010;2022-08-19T10:01:17;27.50;68.60
5274;DHT22;56254;50.956;7.010;2022-08-19T10:03:43;27.60;68.00
5274;DHT22;56254;50.956;7.010;2022-08-19T10:06:14;27.80;67.30
5274;DHT22;56254;50.956;7.010;2022-08-19T10:08:40;27.90;66.70
5274;DHT22;56254;50.956;7.010;2022-08-19T10:11:12;27.90;67.70
5274;DHT22;56254;50.956;7.010;2022-08-19T10:13:44;27.90;68.10
5274;DHT22;56254;50.956;7.010;2022-08-19T10:16:16;27.90;68.00
5274;DHT22;56254;50.956;7.010;2022-08-19T10:18:45;27.90;68.00
5274;DHT22;56254;50.956;7.010;2022-08-19T10:21:17;27.70;67.30
5274;DHT22;56254;50.956;7.010;2022-08-19T10:23:46;27.60;66.90
5274;DHT22;56254;50.956;7.010;2022-08-19T10:26:14;27.70;66.20
5274;DHT22;56254;50.956;7.010;2022-08-19T10:28:42;27.80;66.30
5274;DHT22;56254;50.956;7.010;2022-08-19T10:31:17;27.70;66.30
5274;DHT22;56254;50.956;7.010;2022-08-19T10:33:46;27.70;65.80
5274;DHT22;56254;50.956;7.010;2022-08-19T10:36:17;27.80;65.50
5274;DHT22;56254;50.956;7.010;2022-08-19T10:38:45;27.90;64.70
5274;DHT22;56254;50.956;7.010;2022-08-19T10:41:16;28.10;64.90
5274;DHT22;56254;50.956;7.010;2022-08-19T10:43:43;28.20;65.50
5274;DHT22;56254;50.956;7.010;2022-08-19T10:46:12;28.20;65.00
5274;DHT22;56254;50.956;7.010;2022-08-19T10:48:38;28.40;65.60
5274;DHT22;56254;50.956;7.010;2022-08-19T10:51:05;28.40;64.80
5274;DHT22;56254;50.956;7.010;2022-08-19T10:53:51;28.40;65.80
5274;DHT22;56254;50.956;7.010;2022-08-19T10:56:17;28.60;65.10
5274;DHT22;56254;50.956;7.010;2022-08-19T10:59:02;28.70;64.30
5274;DHT22;56254;50.956;7.010;2022-08-19T11:01:29;29.30;62.20
5274;DHT22;56254;50.956;7.010;2022-08-19T11:03:56;29.60;61.20
5274;DHT22;56254;50.956;7.010;2022-08-19T11:06:31;29.40;61.60
5274;DHT22;56254;50.956;7.010;2022-08-19T11:08:57;28.70;64.30
5274;DHT22;56254;50.956;7.010;2022-08-19T11:11:26;28.90;63.90
5274;DHT22;56254;50.956;7.010;2022-08-19T11:19:42;28.20;64.60
5274;DHT22;56254;50.956;7.010;2022-08-19T11:22:09;28.20;65.30
5274;DHT22;56254;50.956;7.010;2022-08-19T11:24:36;28.00;65.10
5274;DHT22;56254;50.956;7.010;2022-08-19T11:27:08;27.90;66.10
5274;DHT22;56254;50.956;7.010;2022-08-19T11:29:37;28.10;64.90
5274;DHT22;56254;50.956;7.010;2022-08-19T11:32:06;28.30;64.80
5274;DHT22;56254;50.956;7.010;2022-08-19T11:34:32;28.20;64.00
5274;DHT22;56254;50.956;7.010;2022-08-19T11:36:58;28.10;64.40
5274;DHT22;56254;50.956;7.010;2022-08-19T11:39:27;28.40;64.80
5274;DHT22;56254;50.956;7.010;2022-08-19T11:41:53;28.70;63.60
5274;DHT22;56254;50.956;7.010;2022-08-19T11:47:33;28.90;62.50
5274;DHT22;56254;50.956;7.010;2022-08-19T11:49:58;28.70;62.30
5274;DHT22;56254;50.956;7.010;2022-08-19T11:52:24;28.70;62.20
5274;DHT22;56254;50.956;7.010;2022-08-19T11:54:50;28.70;62.50
5274;DHT22;56254;50.956;7.010;2022-08-19T11:57:16;28.90;62.00
5274;DHT22;56254;50.956;7.010;2022-08-19T11:59:47;28.40;62.50
5274;DHT22;56254;50.956;7.010;2022-08-19T12:02:13;28.40;63.00
5274;DHT22;56254;50.956;7.010;2022-08-19T12:04:40;28.60;61.90
5274;DHT22;56254;50.956;7.010;2022-08-19T12:07:06;29.00;61.70
5274;DHT22;56254;50.956;7.010;2022-08-19T12:09:32;29.30;59.40
5274;DHT22;56254;50.956;7.010;2022-08-19T12:12:00;29.10;58.60
5274;DHT22;56254;50.956;7.010;2022-08-19T12:14:27;29.10;60.50
5274;DHT22;56254;50.956;7.010;2022-08-19T12:16:53;29.00;60.40
5274;DHT22;56254;50.956;7.010;2022-08-19T12:19:19;28.80;60.60
5274;DHT22;56254;50.956;7.010;2022-08-19T12:21:45;28.70;61.30
5274;DHT22;56254;50.956;7.010;2022-08-19T12:24:10;28.70;60.50
5274;DHT22;56254;50.956;7.010;2022-08-19T12:26:36;28.70;60.30
5274;DHT22;56254;50.956;7.010;2022-08-19T12:29:02;28.50;60.60
5274;DHT22;56254;50.956;7.010;2022-08-19T12:31:29;28.60;60.40
5274;DHT22;56254;50.956;7.010;2022-08-19T12:33:55;28.70;59.80
5274;DHT22;56254;50.956;7.010;2022-08-19T12:36:21;28.60;59.90
5274;DHT22;56254;50.956;7.010;2022-08-19T12:38:47;28.90;59.00
5274;DHT22;56254;50.956;7.010;2022-08-19T12:41:14;29.10;58.10
5274;DHT22;56254;50.956;7.010;2022-08-19T12:43:42;29.50;57.30
5274;DHT22;56254;50.956;7.010;2022-08-19T12:46:09;29.40;55.80
5274;DHT22;56254;50.956;7.010;2022-08-19T12:48:36;29.00;56.90
5274;DHT22;56254;50.956;7.010;2022-08-19T12:51:14;28.90;57.10
5274;DHT22;56254;50.956;7.010;2022-08-19T12:53:40;28.90;58.30
5274;DHT22;56254;50.956;7.010;2022-08-19T12:56:08;29.30;57.00
5274;DHT22;56254;50.956;7.010;2022-08-19T12:58:34;29.60;55.80
5274;DHT22;56254;50.956;7.010;2022-08-19T13:01:10;29.90;55.30
5274;DHT22;56254;50.956;7.010;2022-08-19T13:03:36;30.00;55.00
5274;DHT22;56254;50.956;7.010;2022-08-19T13:06:02;30.30;54.80
5274;DHT22;56254;50.956;7.010;2022-08-19T13:08:28;30.60;54.50
5274;DHT22;56254;50.956;7.010;2022-08-19T13:10:54;30.80;54.40
5274;DHT22;56254;50.956;7.010;2022-08-19T13:13:19;30.30;54.60
5274;DHT22;56254;50.956;7.010;2022-08-19T13:15:45;30.20;54.90
5274;DHT22;56254;50.956;7.010;2022-08-19T13:18:11;29.80;55.20
5274;DHT22;56254;50.956;7.010;2022-08-19T13:20:38;29.40;56.20
5274;DHT22;56254;50.956;7.010;2022-08-19T13:23:06;29.30;56.40
5274;DHT22;56254;50.956;7.010;2022-08-19T13:25:33;29.30;55.90
5274;DHT22;56254;50.956;7.010;2022-08-19T13:27:59;29.30;55.80
5274;DHT22;56254;50.956;7.010;2022-08-19T13:30:25;29.30;55.40
5274;DHT22;56254;50.956;7.010;2022-08-19T13:33:10;29.30;55.00
5274;DHT22;56254;50.956;7.010;2022-08-19T13:35:48;29.20;55.10
5274;DHT22;56254;50.956;7.010;2022-08-19T13:38:19;28.80;55.90
5274;DHT22;56254;50.956;7.010;2022-08-19T13:40:46;28.90;56.60
5274;DHT22;56254;50.956;7.010;2022-08-19T13:43:13;28.90;56.30
5274;DHT22;56254;50.956;7.010;2022-08-19T13:45:39;29.20;54.50
5274;DHT22;56254;50.956;7.010;2022-08-19T13:48:06;29.40;53.70
5274;DHT22;56254;50.956;7.010;2022-08-19T13:50:35;29.50;54.10
5274;DHT22;56254;50.956;7.010;2022-08-19T13:53:02;29.50;52.90
5274;DHT22;56254;50.956;7.010;2022-08-19T13:55:29;29.40;52.40
5274;DHT22;56254;50.956;7.010;2022-08-19T13:57:59;29.60;51.80
5274;DHT22;56254;50.956;7.010;2022-08-19T14:00:29;29.50;52.30
5274;DHT22;56254;50.956;7.010;2022-08-19T14:02:57;29.60;52.20
5274;DHT22;56254;50.956;7.010;2022-08-19T14:05:24;29.50;52.20
5274;DHT22;56254;50.956;7.010;2022-08-19T14:07:50;29.60;51.70
5274;DHT22;56254;50.956;7.010;2022-08-19T14:10:16;29.50;52.30
5274;DHT22;56254;50.956;7.010;2022-08-19T14:12:42;29.60;51.60
5274;DHT22;56254;50.956;7.010;2022-08-19T14:15:09;29.50;52.00
5274;DHT22;56254;50.956;7.010;2022-08-19T14:17:38;29.80;51.60
5274;DHT22;56254;50.956;7.010;2022-08-19T14:20:05;29.60;51.50
5274;DHT22;56254;50.956;7.010;2022-08-19T14:22:36;29.70;51.30
5274;DHT22;56254;50.956;7.010;2022-08-19T14:25:07;30.10;50.90
5274;DHT22;56254;50.956;7.010;2022-08-19T14:27:38;30.10;51.00
5274;DHT22;56254;50.956;7.010;2022-08-19T14:30:06;30.10;51.20
5274;DHT22;56254;50.956;7.010;2022-08-19T14:32:33;29.90;51.10
5274;DHT22;56254;50.956;7.010;2022-08-19T14:34:59;29.90;50.80
5274;DHT22;56254;50.956;7.010;2022-08-19T14:37:25;29.80;51.50
5274;DHT22;56254;50.956;7.010;2022-08-19T14:39:50;29.30;52.20
5274;DHT22;56254;50.956;7.010;2022-08-19T14:42:16;29.40;52.60
5274;DHT22;56254;50.956;7.010;2022-08-19T14:44:42;29.50;52.50
5274;DHT22;56254;50.956;7.010;2022-08-19T14:47:09;29.20;53.30
5274;DHT22;56254;50.956;7.010;2022-08-19T14:49:35;29.10;52.80
5274;DHT22;56254;50.956;7.010;2022-08-19T14:52:02;29.10;53.90
5274;DHT22;56254;50.956;7.010;2022-08-19T14:54:29;29.20;53.10
5274;DHT22;56254;50.956;7.010;2022-08-19T14:56:54;29.10;53.30
5274;DHT22;56254;50.956;7.010;2022-08-19T14:59:20;29.10;52.50
5274;DHT22;56254;50.956;7.010;2022-08-19T15:01:46;29.20;50.80
5274;DHT22;56254;50.956;7.010;2022-08-19T15:04:11;29.30;50.60
5274;DHT22;56254;50.956;7.010;2022-08-19T15:06:37;29.40;50.10
5274;DHT22;56254;50.956;7.010;2022-08-19T15:09:03;29.60;50.60
5274;DHT22;56254;50.956;7.010;2022-08-19T15:11:30;29.50;51.30
5274;DHT22;56254;50.956;7.010;2022-08-19T15:13:58;29.70;50.30
5274;DHT22;56254;50.956;7.010;2022-08-19T15:16:26;29.60;50.00
5274;DHT22;56254;50.956;7.010;2022-08-19T15:18:56;29.80;50.00
5274;DHT22;56254;50.956;7.010;2022-08-19T15:21:23;29.60;48.90
5274;DHT22;56254;50.956;7.010;2022-08-19T15:23:49;29.40;49.20
5274;DHT22;56254;50.956;7.010;2022-08-19T15:26:17;29.40;49.00
5274;DHT22;56254;50.956;7.010;2022-08-19T15:28:44;29.50;48.10
5274;DHT22;56254;50.956;7.010;2022-08-19T15:31:11;29.40;48.60
5274;DHT22;56254;50.956;7.010;2022-08-19T15:33:38;29.40;48.90
5274;DHT22;56254;50.956;7.010;2022-08-19T15:36:08;29.40;48.70
5274;DHT22;56254;50.956;7.010;2022-08-19T15:38:34;29.40;48.10
5274;DHT22;56254;50.956;7.010;2022-08-19T15:41:01;29.40;48.20
5274;DHT22;56254;50.956;7.010;2022-08-19T15:43:47;29.40;48.40
5274;DHT22;56254;50.956;7.010;2022-08-19T15:46:17;29.40;49.00
5274;DHT22;56254;50.956;7.010;2022-08-19T15:48:44;29.20;49.30
5274;DHT22;56254;50.956;7.010;2022-08-19T15:51:10;29.10;49.90
5274;DHT22;56254;50.956;7.010;2022-08-19T15:53:35;29.00;50.60
5274;DHT22;56254;50.956;7.010;2022-08-19T15:56:01;29.00;50.20
5274;DHT22;56254;50.956;7.010;2022-08-19T15:58:27;29.20;49.30
5274;DHT22;56254;50.956;7.010;2022-08-19T16:01:12;29.30;49.70
5274;DHT22;56254;50.956;7.010;2022-08-19T16:04:13;29.30;50.00
5274;DHT22;56254;50.956;7.010;2022-08-19T16:06:59;29.20;50.30
5274;DHT22;56254;50.956;7.010;2022-08-19T16:09:28;29.30;50.70
5274;DHT22;56254;50.956;7.010;2022-08-19T16:12:02;29.30;51.10
5274;DHT22;56254;50.956;7.010;2022-08-19T16:14:31;29.30;50.80
5274;DHT22;56254;50.956;7.010;2022-08-19T16:16:57;29.30;51.20
5274;DHT22;56254;50.956;7.010;2022-08-19T16:19:23;29.10;52.70